sensor_id;sensor_type;location;lat;lon;timestamp;pressure;altitude;pressure_sealevel;temperature;humidity
64933;BME280;51446;53.850;10.662;2023-05-22T00:00:46;101783.47;;;14.79;100.00
64933;BME280;51446;53.850;10.662;2023-05-22T00:03:11;101779.91;;;14.76;100.00
64933;BME280;51446;53.850;10.662;2023-05-22T00:05:36;101788.50;;;14.62;100.00
64933;BME280;51446;53.850;10.662;2023-05-22T00:08:06;101790.28;;;14.65;100.00
64933;BME280;51446;53.850;10.662;2023-05-22T00:10:37;101782.19;;;14.55;100.00
64933;BME280;51446;53.850;10.662;2023-05-22T00:13:03;101781.31;;;14.53;100.00
64933;BME280;51446;53.850;10.662;2023-05-22T00:15:29;101782.19;;;14.55;100.00
64933;BME280;51446;53.850;10.662;2023-05-22T00:17:54;101779.56;;;14.55;100.00
64933;BME280;51446;53.850;10.662;2023-05-22T00:20:19;101776.84;;;14.49;100.00
64933;BME280;51446;53.850;10.662;2023-05-22T00:22:44;101768.78;;;14.43;100.00
64933;BME280;51446;53.850;10.662;2023-05-22T00:25:14;101777.63;;;14.44;100.00
64933;BME280;51446;53.850;10.662;2023-05-22T00:27:42;101776.84;;;14.49;100.00
64933;BME280;51446;53.850;10.662;2023-05-22T00:30:08;101767.94;;;14.44;100.00
64933;BME280;51446;53.850;10.662;2023-05-22T00:32:33;101762.72;;;14.47;100.00
64933;BME280;51446;53.850;10.662;2023-05-22T00:34:58;101774.06;;;14.42;100.00
64933;BME280;51446;53.850;10.662;2023-05-22T00:37:24;101774.97;;;14.42;100.00
64933;BME280;51446;53.850;10.662;2023-05-22T00:39:49;101764.31;;;14.37;100.00
64933;BME280;51446;53.850;10.662;2023-05-22T00:42:15;101769.59;;;14.37;100.00
64933;BME280;51446;53.850;10.662;2023-05-22T00:44:40;101768.84;;;14.46;100.00
64933;BME280;51446;53.850;10.662;2023-05-22T00:47:06;101770.53;;;14.39;100.00
64933;BME280;51446;53.850;10.662;2023-05-22T00:49:31;101766.06;;;14.37;100.00
64933;BME280;51446;53.850;10.662;2023-05-22T00:51:57;101759.81;;;14.32;100.00
64933;BME280;51446;53.850;10.662;2023-05-22T00:54:22;101765.06;;;14.29;100.00
64933;BME280;51446;53.850;10.662;2023-05-22T00:56:48;101758.84;;;14.25;100.00
64933;BME280;51446;53.850;10.662;2023-05-22T00:59:14;101758.78;;;14.20;100.00
64933;BME280;51446;53.850;10.662;2023-05-22T01:01:41;101759.63;;;14.18;100.00
64933;BME280;51446;53.850;10.662;2023-05-22T01:04:11;101763.97;;;14.17;100.00
64933;BME280;51446;53.850;10.662;2023-05-22T01:06:37;101762.25;;;14.18;100.00
64933;BME280;51446;53.850;10.662;2023-05-22T01:09:02;101764.06;;;14.20;100.00
64933;BME280;51446;53.850;10.662;2023-05-22T01:12:02;101756.81;;;14.10;100.00
64933;BME280;51446;53.850;10.662;2023-05-22T01:17:07;101757.81;;;14.15;100.00
64933;BME280;51446;53.850;10.662;2023-05-22T01:19:51;101755.03;;;14.08;100.00
64933;BME280;51446;53.850;10.662;2023-05-22T01:23:09;101761.06;;;13.99;100.00
64933;BME280;51446;53.850;10.662;2023-05-22T01:28:39;101757.34;;;13.89;100.00
64933;BME280;51446;53.850;10.662;2023-05-22T01:31:10;101757.41;;;13.92;100.00
64933;BME280;51446;53.850;10.662;2023-05-22T01:33:56;101759.94;;;13.86;100.00
64933;BME280;51446;53.850;10.662;2023-05-22T01:36:26;101757.28;;;13.84;100.00
64933;BME280;51446;53.850;10.662;2023-05-22T01:38:53;101756.28;;;13.79;100.00
64933;BME280;51446;53.850;10.662;2023-05-22T01:41:19;101755.41;;;13.79;100.00
64933;BME280;51446;53.850;10.662;2023-05-22T01:43:45;101761.44;;;13.72;100.00
64933;BME280;51446;53.850;10.662;2023-05-22T01:46:11;101758.63;;;13.64;100.00
64933;BME280;51446;53.850;10.662;2023-05-22T01:48:36;101763.00;;;13.62;100.00
64933;BME280;51446;53.850;10.662;2023-05-22T01:51:18;101761.19;;;13.59;100.00
64933;BME280;51446;53.850;10.662;2023-05-22T01:54:00;101750.69;;;13.61;100.00
64933;BME280;51446;53.850;10.662;2023-05-22T01:56:40;101752.41;;;13.59;100.00
64933;BME280;51446;53.850;10.662;2023-05-22T01:59:33;101754.28;;;13.64;100.00
64933;BME280;51446;53.850;10.662;2023-05-22T02:02:05;101755.91;;;13.59;100.00
64933;BME280;51446;53.850;10.662;2023-05-22T02:04:31;101753.31;;;13.61;100.00
64933;BME280;51446;53.850;10.662;2023-05-22T02:07:00;101754.16;;;13.60;100.00
64933;BME280;51446;53.850;10.662;2023-05-22T02:09:28;101754.06;;;13.53;100.00
64933;BME280;51446;53.850;10.662;2023-05-22T02:11:56;101762.97;;;13.60;100.00
64933;BME280;51446;53.850;10.662;2023-05-22T02:14:22;101749.59;;;13.51;100.00
64933;BME280;51446;53.850;10.662;2023-05-22T02:16:47;101754.16;;;13.60;100.00
64933;BME280;51446;53.850;10.662;2023-05-22T02:19:14;101747.75;;;13.45;100.00
64933;BME280;51446;53.850;10.662;2023-05-22T02:21:39;101751.38;;;13.50;100.00
64933;BME280;51446;53.850;10.662;2023-05-22T02:24:05;101747.91;;;13.53;100.00
64933;BME280;51446;53.850;10.662;2023-05-22T02:26:30;101739.72;;;13.39;100.00
64933;BME280;51446;53.850;10.662;2023-05-22T02:28:56;101736.91;;;13.31;100.00
64933;BME280;51446;53.850;10.662;2023-05-22T02:31:21;101741.34;;;13.32;100.00
64933;BME280;51446;53.850;10.662;2023-05-22T02:33:46;101735.97;;;13.29;100.00
64933;BME280;51446;53.850;10.662;2023-05-22T02:36:12;101733.13;;;13.18;100.00
64933;BME280;51446;53.850;10.662;2023-05-22T02:38:38;101732.00;;;13.06;100.00
64933;BME280;51446;53.850;10.662;2023-05-22T02:41:04;101726.16;;;13.21;100.00
64933;BME280;51446;53.850;10.662;2023-05-22T02:43:29;101726.94;;;13.16;100.00
64933;BME280;51446;53.850;10.662;2023-05-22T02:45:54;101736.38;;;13.05;100.00
64933;BME280;51446;53.850;10.662;2023-05-22T02:48:20;101731.78;;;12.96;100.00
64933;BME280;51446;53.850;10.662;2023-05-22T02:50:45;101732.59;;;12.92;100.00
64933;BME280;51446;53.850;10.662;2023-05-22T02:53:12;101726.50;;;12.95;100.00
64933;BME280;51446;53.850;10.662;2023-05-22T02:55:42;101728.28;;;12.96;100.00
64933;BME280;51446;53.850;10.662;2023-05-22T02:58:09;101722.94;;;12.93;100.00
64933;BME280;51446;53.850;10.662;2023-05-22T03:00:37;101725.56;;;12.91;100.00
64933;BME280;51446;53.850;10.662;2023-05-22T03:03:04;101720.28;;;12.91;100.00
64933;BME280;51446;53.850;10.662;2023-05-22T03:05:29;101717.63;;;12.90;100.00
64933;BME280;51446;53.850;10.662;2023-05-22T03:07:55;101718.41;;;12.86;100.00
64933;BME280;51446;53.850;10.662;2023-05-22T03:10:22;101717.59;;;12.88;100.00
64933;BME280;51446;53.850;10.662;2023-05-22T03:12:47;101705.16;;;12.81;100.00
64933;BME280;51446;53.850;10.662;2023-05-22T03:15:13;101714.88;;;12.83;100.00
64933;BME280;51446;53.850;10.662;2023-05-22T03:17:38;101708.78;;;12.88;100.00
64933;BME280;51446;53.850;10.662;2023-05-22T03:20:04;101710.50;;;12.86;100.00
64933;BME280;51446;53.850;10.662;2023-05-22T03:22:29;101703.56;;;12.89;100.00
64933;BME280;51446;53.850;10.662;2023-05-22T03:24:54;101704.41;;;12.87;100.00
64933;BME280;51446;53.850;10.662;2023-05-22T03:27:20;101704.47;;;12.90;100.00
64933;BME280;51446;53.850;10.662;2023-05-22T03:29:45;101708.16;;;12.98;100.00
64933;BME280;51446;53.850;10.662;2023-05-22T03:32:10;101700.19;;;12.96;100.00
64933;BME280;51446;53.850;10.662;2023-05-22T03:34:36;101700.19;;;12.96;100.00
64933;BME280;51446;53.850;10.662;2023-05-22T03:37:01;101698.59;;;13.03;100.00
64933;BME280;51446;53.850;10.662;2023-05-22T03:39:26;101700.50;;;13.12;100.00
64933;BME280;51446;53.850;10.662;2023-05-22T03:41:51;101702.31;;;13.13;100.00
64933;BME280;51446;53.850;10.662;2023-05-22T03:44:17;101695.41;;;13.19;100.00
64933;BME280;51446;53.850;10.662;2023-05-22T03:46:42;101689.16;;;13.14;100.00
64933;BME280;51446;53.850;10.662;2023-05-22T03:49:08;101693.63;;;13.18;100.00
64933;BME280;51446;53.850;10.662;2023-05-22T03:51:33;101693.59;;;13.17;100.00
64933;BME280;51446;53.850;10.662;2023-05-22T03:53:58;101690.25;;;13.24;100.00
64933;BME280;51446;53.850;10.662;2023-05-22T03:56:23;101697.22;;;13.24;100.00
64933;BME280;51446;53.850;10.662;2023-05-22T03:58:48;101691.09;;;13.23;100.00
64933;BME280;51446;53.850;10.662;2023-05-22T04:01:14;101693.72;;;13.23;100.00
64933;BME280;51446;53.850;10.662;2023-05-22T04:03:41;101694.72;;;13.28;100.00
64933;BME280;51446;53.850;10.662;2023-05-22T04:06:06;101692.94;;;13.29;100.00
64933;BME280;51446;53.850;10.662;2023-05-22T04:08:31;101694.91;;;13.38;100.00
64933;BME280;51446;53.850;10.662;2023-05-22T04:10:56;101695.09;;;13.47;100.00
64933;BME280;51446;53.850;10.662;2023-05-22T04:13:22;101695.13;;;13.48;100.00
64933;BME280;51446;53.850;10.662;2023-05-22T04:15:47;101692.69;;;13.61;100.00
64933;BME280;51446;53.850;10.662;2023-05-22T04:18:14;101691.13;;;13.70;100.00
64933;BME280;51446;53.850;10.662;2023-05-22T04:20:39;101692.03;;;13.74;100.00
64933;BME280;51446;53.850;10.662;2023-05-22T04:23:04;101685.19;;;13.84;100.00
64933;BME280;51446;53.850;10.662;2023-05-22T04:25:31;101691.47;;;13.91;100.00
64933;BME280;51446;53.850;10.662;2023-05-22T04:27:58;101691.56;;;13.98;100.00
64933;BME280;51446;53.850;10.662;2023-05-22T04:30:23;101681.56;;;14.31;100.00
64933;BME280;51446;53.850;10.662;2023-05-22T04:32:49;101680.66;;;14.32;100.00
64933;BME280;51446;53.850;10.662;2023-05-22T04:35:15;101683.34;;;14.33;100.00
64933;BME280;51446;53.850;10.662;2023-05-22T04:37:42;101675.38;;;14.32;100.00
64933;BME280;51446;53.850;10.662;2023-05-22T04:40:09;101680.88;;;14.46;100.00
64933;BME280;51446;53.850;10.662;2023-05-22T04:42:36;101670.50;;;14.58;100.00
64933;BME280;51446;53.850;10.662;2023-05-22T04:45:03;101670.00;;;14.84;100.00
64933;BME280;51446;53.850;10.662;2023-05-22T04:47:29;101670.03;;;14.87;100.00
64933;BME280;51446;53.850;10.662;2023-05-22T04:49:58;101674.56;;;14.99;100.00
64933;BME280;51446;53.850;10.662;2023-05-22T04:52:24;101664.19;;;15.14;100.00
64933;BME280;51446;53.850;10.662;2023-05-22T04:54:49;101673.19;;;15.32;100.00
64933;BME280;51446;53.850;10.662;2023-05-22T04:57:16;101666.44;;;15.63;100.00
64933;BME280;51446;53.850;10.662;2023-05-22T04:59:42;101665.53;;;15.63;100.00
64933;BME280;51446;53.850;10.662;2023-05-22T05:02:08;101673.59;;;15.75;100.00
64933;BME280;51446;53.850;10.662;2023-05-22T05:04:33;101668.31;;;15.75;100.00
64933;BME280;51446;53.850;10.662;2023-05-22T05:06:59;101668.50;;;15.93;100.00
64933;BME280;51446;53.850;10.662;2023-05-22T05:09:24;101661.56;;;16.09;100.00
64933;BME280;51446;53.850;10.662;2023-05-22T05:11:50;101667.03;;;16.37;100.00
64933;BME280;51446;53.850;10.662;2023-05-22T05:14:16;101672.41;;;16.50;100.00
64933;BME280;51446;53.850;10.662;2023-05-22T05:16:41;101668.00;;;16.52;100.00
64933;BME280;51446;53.850;10.662;2023-05-22T05:19:07;101668.13;;;16.75;100.00
64933;BME280;51446;53.850;10.662;2023-05-22T05:21:32;101658.44;;;16.77;100.00
64933;BME280;51446;53.850;10.662;2023-05-22T05:23:57;101657.56;;;16.84;100.00
64933;BME280;51446;53.850;10.662;2023-05-22T05:26:23;101664.59;;;16.77;100.00
64933;BME280;51446;53.850;10.662;2023-05-22T05:28:49;101661.09;;;16.78;100.00
64933;BME280;51446;53.850;10.662;2023-05-22T05:31:14;101660.16;;;16.76;100.00
64933;BME280;51446;53.850;10.662;2023-05-22T05:33:39;101669.16;;;17.08;100.00
64933;BME280;51446;53.850;10.662;2023-05-22T05:36:05;101666.53;;;17.12;100.00
64933;BME280;51446;53.850;10.662;2023-05-22T05:38:30;101663.06;;;17.44;100.00
64933;BME280;51446;53.850;10.662;2023-05-22T05:40:56;101666.59;;;17.43;100.00
64933;BME280;51446;53.850;10.662;2023-05-22T05:43:21;101669.28;;;17.69;100.00
64933;BME280;51446;53.850;10.662;2023-05-22T05:45:47;101651.63;;;18.18;100.00
64933;BME280;51446;53.850;10.662;2023-05-22T05:48:12;101656.84;;;18.46;100.00
64933;BME280;51446;53.850;10.662;2023-05-22T05:50:37;101651.41;;;18.86;100.00
64933;BME280;51446;53.850;10.662;2023-05-22T05:53:03;101660.09;;;19.23;100.00
64933;BME280;51446;53.850;10.662;2023-05-22T05:55:28;101656.34;;;19.54;100.00
64933;BME280;51446;53.850;10.662;2023-05-22T05:57:55;101655.75;;;20.25;100.00
64933;BME280;51446;53.850;10.662;2023-05-22T06:00:20;101651.72;;;20.71;100.00
64933;BME280;51446;53.850;10.662;2023-05-22T06:02:46;101655.88;;;20.93;95.20
64933;BME280;51446;53.850;10.662;2023-05-22T06:05:12;101653.00;;;21.09;92.18
64933;BME280;51446;53.850;10.662;2023-05-22T06:07:39;101649.34;;;21.18;87.24
64933;BME280;51446;53.850;10.662;2023-05-22T06:10:05;101655.91;;;21.54;87.36
64933;BME280;51446;53.850;10.662;2023-05-22T06:12:31;101658.81;;;21.93;83.71
64933;BME280;51446;53.850;10.662;2023-05-22T06:14:56;101654.09;;;22.09;75.96
64933;BME280;51446;53.850;10.662;2023-05-22T06:17:21;101650.56;;;22.07;77.65
64933;BME280;51446;53.850;10.662;2023-05-22T06:19:46;101655.13;;;22.50;78.96
64933;BME280;51446;53.850;10.662;2023-05-22T06:22:12;101644.69;;;23.24;70.34
64933;BME280;51446;53.850;10.662;2023-05-22T06:24:37;101646.13;;;23.75;67.86
64933;BME280;51446;53.850;10.662;2023-05-22T06:27:02;101642.81;;;23.64;66.31
64933;BME280;51446;53.850;10.662;2023-05-22T06:29:28;101641.41;;;23.85;67.55
64933;BME280;51446;53.850;10.662;2023-05-22T06:31:53;101645.31;;;24.73;61.27
64933;BME280;51446;53.850;10.662;2023-05-22T06:34:18;101651.94;;;24.90;57.60
64933;BME280;51446;53.850;10.662;2023-05-22T06:36:44;101654.13;;;24.77;58.60
64933;BME280;51446;53.850;10.662;2023-05-22T06:39:10;101657.13;;;24.96;56.18
64933;BME280;51446;53.850;10.662;2023-05-22T06:41:35;101656.50;;;25.16;55.17
64933;BME280;51446;53.850;10.662;2023-05-22T06:44:00;101652.78;;;24.92;55.29
64933;BME280;51446;53.850;10.662;2023-05-22T06:46:26;101648.56;;;24.83;54.97
64933;BME280;51446;53.850;10.662;2023-05-22T06:48:51;101651.91;;;24.91;56.97
64933;BME280;51446;53.850;10.662;2023-05-22T06:51:17;101649.88;;;25.00;56.22
64933;BME280;51446;53.850;10.662;2023-05-22T06:53:42;101645.56;;;25.24;55.27
64933;BME280;51446;53.850;10.662;2023-05-22T06:56:07;101648.91;;;24.39;57.53
64933;BME280;51446;53.850;10.662;2023-05-22T06:58:32;101643.84;;;23.60;59.25
64933;BME280;51446;53.850;10.662;2023-05-22T07:00:58;101645.63;;;23.21;64.87
64933;BME280;51446;53.850;10.662;2023-05-22T07:03:23;101642.53;;;22.56;70.74
64933;BME280;51446;53.850;10.662;2023-05-22T07:05:48;101641.34;;;22.24;65.76
64933;BME280;51446;53.850;10.662;2023-05-22T07:08:15;101656.38;;;21.79;69.48
64933;BME280;51446;53.850;10.662;2023-05-22T07:10:40;101644.97;;;21.12;74.13
64933;BME280;51446;53.850;10.662;2023-05-22T07:13:05;101647.78;;;21.62;75.54
64933;BME280;51446;53.850;10.662;2023-05-22T07:15:30;101646.97;;;22.08;75.74
64933;BME280;51446;53.850;10.662;2023-05-22T07:17:56;101645.19;;;22.57;72.31
64933;BME280;51446;53.850;10.662;2023-05-22T07:20:21;101638.84;;;23.44;65.54
64933;BME280;51446;53.850;10.662;2023-05-22T07:22:46;101639.94;;;23.73;62.77
64933;BME280;51446;53.850;10.662;2023-05-22T07:25:11;101634.97;;;24.58;58.42
64933;BME280;51446;53.850;10.662;2023-05-22T07:27:37;101631.34;;;24.90;60.12
64933;BME280;51446;53.850;10.662;2023-05-22T07:30:02;101631.00;;;24.73;58.44
64933;BME280;51446;53.850;10.662;2023-05-22T07:32:27;101629.06;;;25.36;56.26
64933;BME280;51446;53.850;10.662;2023-05-22T07:34:53;101625.44;;;25.91;55.92
64933;BME280;51446;53.850;10.662;2023-05-22T07:37:18;101628.13;;;25.91;53.80
64933;BME280;51446;53.850;10.662;2023-05-22T07:39:43;101629.75;;;26.22;52.17
64933;BME280;51446;53.850;10.662;2023-05-22T07:42:11;101625.03;;;26.28;54.16
64933;BME280;51446;53.850;10.662;2023-05-22T07:44:38;101628.41;;;25.56;53.15
64933;BME280;51446;53.850;10.662;2023-05-22T07:47:04;101623.03;;;25.00;54.26
64933;BME280;51446;53.850;10.662;2023-05-22T07:49:29;101623.72;;;25.06;58.17
64933;BME280;51446;53.850;10.662;2023-05-22T07:51:55;101624.63;;;25.35;56.68
64933;BME280;51446;53.850;10.662;2023-05-22T07:54:20;101619.78;;;25.73;54.18
64933;BME280;51446;53.850;10.662;2023-05-22T07:56:45;101618.59;;;25.82;53.35
64933;BME280;51446;53.850;10.662;2023-05-22T07:59:11;101622.69;;;26.92;48.40
64933;BME280;51446;53.850;10.662;2023-05-22T08:01:38;101618.03;;;27.84;47.32
64933;BME280;51446;53.850;10.662;2023-05-22T08:04:04;101613.34;;;27.89;47.93
64933;BME280;51446;53.850;10.662;2023-05-22T08:06:29;101623.63;;;27.79;46.26
64933;BME280;51446;53.850;10.662;2023-05-22T08:08:55;101617.69;;;27.92;45.02
64933;BME280;51446;53.850;10.662;2023-05-22T08:11:20;101610.75;;;28.27;42.11
64933;BME280;51446;53.850;10.662;2023-05-22T08:13:45;101618.63;;;28.52;41.25
64933;BME280;51446;53.850;10.662;2023-05-22T08:16:11;101615.41;;;29.39;39.27
64933;BME280;51446;53.850;10.662;2023-05-22T08:18:36;101611.41;;;28.53;38.72
64933;BME280;51446;53.850;10.662;2023-05-22T08:21:01;101613.25;;;28.32;39.18
64933;BME280;51446;53.850;10.662;2023-05-22T08:23:26;101609.03;;;28.06;39.81
64933;BME280;51446;53.850;10.662;2023-05-22T08:25:52;101603.84;;;28.01;41.02
64933;BME280;51446;53.850;10.662;2023-05-22T08:28:17;101599.69;;;28.73;38.95
64933;BME280;51446;53.850;10.662;2023-05-22T08:30:42;101597.84;;;28.15;39.75
64933;BME280;51446;53.850;10.662;2023-05-22T08:33:08;101600.28;;;26.91;40.86
64933;BME280;51446;53.850;10.662;2023-05-22T08:35:33;101595.41;;;27.23;40.89
64933;BME280;51446;53.850;10.662;2023-05-22T08:37:58;101593.91;;;27.16;39.59
64933;BME280;51446;53.850;10.662;2023-05-22T08:40:33;101588.66;;;27.35;38.21
64933;BME280;51446;53.850;10.662;2023-05-22T08:43:00;101587.81;;;27.34;37.71
64933;BME280;51446;53.850;10.662;2023-05-22T08:45:25;101589.09;;;27.67;37.04
64933;BME280;51446;53.850;10.662;2023-05-22T08:47:54;101584.91;;;27.39;38.92
64933;BME280;51446;53.850;10.662;2023-05-22T08:50:19;101583.78;;;27.45;38.42
64933;BME280;51446;53.850;10.662;2023-05-22T08:52:49;101585.63;;;27.65;37.42
64933;BME280;51446;53.850;10.662;2023-05-22T08:55:15;101580.63;;;28.38;36.59
64933;BME280;51446;53.850;10.662;2023-05-22T08:57:44;101585.47;;;27.89;36.63
64933;BME280;51446;53.850;10.662;2023-05-22T09:00:10;101578.59;;;28.03;38.26
64933;BME280;51446;53.850;10.662;2023-05-22T09:02:37;101568.22;;;28.34;38.04
64933;BME280;51446;53.850;10.662;2023-05-22T09:05:03;101575.19;;;29.33;34.16
64933;BME280;51446;53.850;10.662;2023-05-22T09:07:30;101570.63;;;28.78;37.11
64933;BME280;51446;53.850;10.662;2023-05-22T09:09:56;101571.31;;;28.64;35.18
64933;BME280;51446;53.850;10.662;2023-05-22T09:12:21;101564.41;;;27.98;37.15
64933;BME280;51446;53.850;10.662;2023-05-22T09:14:46;101556.03;;;28.04;38.20
64933;BME280;51446;53.850;10.662;2023-05-22T09:17:15;101553.50;;;28.20;36.77
64933;BME280;51446;53.850;10.662;2023-05-22T09:19:44;101543.06;;;29.80;35.76
64933;BME280;51446;53.850;10.662;2023-05-22T09:22:10;101547.31;;;29.68;35.69
64933;BME280;51446;53.850;10.662;2023-05-22T09:24:40;101547.59;;;30.30;35.53
64933;BME280;51446;53.850;10.662;2023-05-22T09:27:06;101549.44;;;29.44;33.51
64933;BME280;51446;53.850;10.662;2023-05-22T09:29:39;101553.28;;;28.84;34.48
64933;BME280;51446;53.850;10.662;2023-05-22T09:32:12;101563.34;;;27.17;35.92
64933;BME280;51446;53.850;10.662;2023-05-22T09:34:38;101546.47;;;26.20;38.08
64933;BME280;51446;53.850;10.662;2023-05-22T09:37:04;101547.25;;;25.47;39.86
64933;BME280;51446;53.850;10.662;2023-05-22T09:39:40;101551.25;;;25.06;40.33
64933;BME280;51446;53.850;10.662;2023-05-22T09:42:07;101545.59;;;25.16;40.47
64933;BME280;51446;53.850;10.662;2023-05-22T09:44:34;101548.44;;;25.11;40.95
64933;BME280;51446;53.850;10.662;2023-05-22T09:46:59;101542.28;;;25.36;42.21
64933;BME280;51446;53.850;10.662;2023-05-22T09:49:25;101536.13;;;25.59;40.79
64933;BME280;51446;53.850;10.662;2023-05-22T09:51:53;101533.19;;;25.11;43.27
64933;BME280;51446;53.850;10.662;2023-05-22T09:54:19;101541.41;;;25.07;41.53
64933;BME280;51446;53.850;10.662;2023-05-22T09:56:47;101531.44;;;25.39;41.86
64933;BME280;51446;53.850;10.662;2023-05-22T09:59:21;101535.28;;;25.57;42.81
64933;BME280;51446;53.850;10.662;2023-05-22T10:01:50;101543.47;;;25.79;42.69
64933;BME280;51446;53.850;10.662;2023-05-22T10:04:17;101522.16;;;25.98;40.79
64933;BME280;51446;53.850;10.662;2023-05-22T10:06:47;101523.38;;;26.38;39.78
64933;BME280;51446;53.850;10.662;2023-05-22T10:09:15;101516.19;;;26.62;40.50
64933;BME280;51446;53.850;10.662;2023-05-22T10:11:41;101517.84;;;26.89;39.94
64933;BME280;51446;53.850;10.662;2023-05-22T10:14:08;101518.53;;;26.94;40.10
64933;BME280;51446;53.850;10.662;2023-05-22T10:16:34;101511.59;;;27.53;39.69
64933;BME280;51446;53.850;10.662;2023-05-22T10:19:02;101515.25;;;27.92;38.30
64933;BME280;51446;53.850;10.662;2023-05-22T10:21:28;101506.94;;;28.17;36.93
64933;BME280;51446;53.850;10.662;2023-05-22T10:23:54;101513.09;;;28.59;39.03
64933;BME280;51446;53.850;10.662;2023-05-22T10:26:20;101507.78;;;27.57;36.15
64933;BME280;51446;53.850;10.662;2023-05-22T10:29:06;101499.13;;;27.50;37.12
64933;BME280;51446;53.850;10.662;2023-05-22T10:31:57;101492.38;;;27.61;37.97
64933;BME280;51446;53.850;10.662;2023-05-22T10:35:30;101491.38;;;28.24;39.11
64933;BME280;51446;53.850;10.662;2023-05-22T10:37:49;101483.22;;;29.00;35.86
64933;BME280;51446;53.850;10.662;2023-05-22T10:40:32;101483.13;;;29.01;37.18
64933;BME280;51446;53.850;10.662;2023-05-22T10:42:58;101483.50;;;28.38;32.03
64933;BME280;51446;53.850;10.662;2023-05-22T10:45:25;101473.19;;;28.46;35.16
64933;BME280;51446;53.850;10.662;2023-05-22T10:48:05;101476.63;;;28.50;35.03
64933;BME280;51446;53.850;10.662;2023-05-22T10:50:32;101474.75;;;28.33;35.91
64933;BME280;51446;53.850;10.662;2023-05-22T10:55:46;101471.16;;;28.51;31.88
64933;BME280;51446;53.850;10.662;2023-05-22T10:58:12;101475.22;;;28.79;33.22
64933;BME280;51446;53.850;10.662;2023-05-22T11:00:37;101457.16;;;28.62;31.76
64933;BME280;51446;53.850;10.662;2023-05-22T11:03:03;101471.81;;;28.18;33.13
64933;BME280;51446;53.850;10.662;2023-05-22T11:08:08;101465.47;;;27.40;33.54
64933;BME280;51446;53.850;10.662;2023-05-22T11:10:53;101460.88;;;28.02;33.02
64933;BME280;51446;53.850;10.662;2023-05-22T11:13:20;101453.72;;;28.59;31.65
64933;BME280;51446;53.850;10.662;2023-05-22T11:15:45;101445.25;;;29.03;31.74
64933;BME280;51446;53.850;10.662;2023-05-22T11:18:12;101449.47;;;29.09;31.91
64933;BME280;51446;53.850;10.662;2023-05-22T11:20:40;101437.53;;;29.13;30.75
64933;BME280;51446;53.850;10.662;2023-05-22T11:23:06;101455.78;;;28.90;32.96
64933;BME280;51446;53.850;10.662;2023-05-22T11:25:33;101461.47;;;28.47;31.37
64933;BME280;51446;53.850;10.662;2023-05-22T11:28:01;101440.41;;;28.36;30.77
64933;BME280;51446;53.850;10.662;2023-05-22T11:30:27;101439.53;;;27.98;32.86
64933;BME280;51446;53.850;10.662;2023-05-22T11:32:56;101433.28;;;27.96;31.71
64933;BME280;51446;53.850;10.662;2023-05-22T11:35:22;101432.78;;;27.48;33.05
64933;BME280;51446;53.850;10.662;2023-05-22T11:37:49;101437.81;;;27.14;32.43
64933;BME280;51446;53.850;10.662;2023-05-22T11:40:17;101432.50;;;26.91;33.00
64933;BME280;51446;53.850;10.662;2023-05-22T11:42:43;101436.91;;;27.36;33.68
64933;BME280;51446;53.850;10.662;2023-05-22T11:45:09;101433.44;;;27.12;32.70
64933;BME280;51446;53.850;10.662;2023-05-22T11:47:35;101432.91;;;27.24;33.71
64933;BME280;51446;53.850;10.662;2023-05-22T11:50:01;101427.81;;;27.39;33.50
64933;BME280;51446;53.850;10.662;2023-05-22T11:52:31;101423.69;;;27.50;32.31
64933;BME280;51446;53.850;10.662;2023-05-22T11:54:57;101412.97;;;27.89;32.21
64933;BME280;51446;53.850;10.662;2023-05-22T11:57:22;101420.28;;;28.44;31.38
64933;BME280;51446;53.850;10.662;2023-05-22T11:59:47;101409.97;;;29.41;31.04
64933;BME280;51446;53.850;10.662;2023-05-22T12:02:14;101416.41;;;28.86;31.18
64933;BME280;51446;53.850;10.662;2023-05-22T12:04:40;101417.50;;;28.99;32.89
64933;BME280;51446;53.850;10.662;2023-05-22T12:07:06;101411.69;;;28.16;30.95
64933;BME280;51446;53.850;10.662;2023-05-22T12:09:32;101416.75;;;28.42;31.62
64933;BME280;51446;53.850;10.662;2023-05-22T12:11:58;101388.25;;;27.99;32.29
64933;BME280;51446;53.850;10.662;2023-05-22T12:14:27;101398.53;;;27.71;31.80
64933;BME280;51446;53.850;10.662;2023-05-22T12:16:53;101398.56;;;28.09;32.17
64933;BME280;51446;53.850;10.662;2023-05-22T12:19:19;101387.53;;;27.56;32.40
64933;BME280;51446;53.850;10.662;2023-05-22T12:21:45;101388.28;;;27.39;34.88
64933;BME280;51446;53.850;10.662;2023-05-22T12:24:13;101391.16;;;27.14;34.14
64933;BME280;51446;53.850;10.662;2023-05-22T12:26:38;101380.09;;;26.99;33.43
64933;BME280;51446;53.850;10.662;2023-05-22T12:29:03;101389.16;;;27.40;34.01
64933;BME280;51446;53.850;10.662;2023-05-22T12:31:35;101387.75;;;27.90;33.77
64933;BME280;51446;53.850;10.662;2023-05-22T12:34:05;101390.16;;;27.96;32.75
64933;BME280;51446;53.850;10.662;2023-05-22T12:36:37;101387.69;;;27.91;34.05
64933;BME280;51446;53.850;10.662;2023-05-22T12:39:07;101381.06;;;28.17;33.27
64933;BME280;51446;53.850;10.662;2023-05-22T12:41:33;101376.41;;;28.21;33.96
64933;BME280;51446;53.850;10.662;2023-05-22T12:43:58;101380.00;;;28.02;33.24
64933;BME280;51446;53.850;10.662;2023-05-22T12:46:26;101372.69;;;27.85;33.59